Hovedside
METAR-TAF:

METAR-TAF

Lufthavner :

Halmstad lufthavn

Halmstad, Sverige

breddegrad: 56-41N, lengdegrad: 012-50E, høyde over havet: 30 m

Gjeldene værobservasjon

Denne rapporten ble laget for 14 minutter siden, klokken 09:50 UTC
Vind 7 kt fra Vest-sørvest, skiftende mellom Sør-sørvest og Vest-nordvest
Temperatur 20°C
Luftfuktighet 64%
Trykk 1013 hPa
Sikt 10 km eller mer
ingen skyer under 1500 m og ingen bygeskyer

METAR: ESMT 200950Z 25007KT 200V290 CAVOK 20/13 Q1013

Tid: 12:04 (10:04 UTC)

Varsel

Denne rapporten ble laget for 1 time og 57 minutter siden, klokken 08:07 UTC
Varsel gyldig fra 20. klokken 09 UTC til 20. klokken 18 UTC
Vind 10 kt fra Vest
Sikt 10 km eller mer
Få skyer i en høyde av 2500 ft

TAF: ESMT 200807Z 2009/2018 27010KT 9999 FEW025

Værobservasjoner og værvarsel for over 4000 flyplasser (METAR- og TAF-rapporter).

Tilgjengelige stasjoner er representert av de røde og gule prikkene på kartet.

Hold musepekeren over prikken for å se navnet på stasjonen.

Klikk så for å se værobservasjoner og -varsler.

For å forandre kartet kan du klikke på den grønne knappen med svart kryss for å zoome inn, på den grønne knappen med strek for å zoome ut, eller på de grønne pilene for å se tilstøtende kart.


METAR-TAF: